sensor_id;sensor_type;location;lat;lon;timestamp;P1;durP1;ratioP1;P2;durP2;ratioP2
50591;SDS011;36548;50.506;30.834;2023-02-28T00:00:27;5.07;;;4.35;;
50591;SDS011;36548;50.506;30.834;2023-02-28T00:01:37;4.20;;;3.80;;
50591;SDS011;36548;50.506;30.834;2023-02-28T00:02:46;4.80;;;4.30;;
50591;SDS011;36548;50.506;30.834;2023-02-28T00:03:56;4.15;;;3.65;;
50591;SDS011;36548;50.506;30.834;2023-02-28T00:05:07;4.43;;;3.88;;
50591;SDS011;36548;50.506;30.834;2023-02-28T00:06:18;4.78;;;4.32;;
50591;SDS011;36548;50.506;30.834;2023-02-28T00:07:29;4.77;;;4.35;;
50591;SDS011;36548;50.506;30.834;2023-02-28T00:08:41;5.05;;;4.55;;
50591;SDS011;36548;50.506;30.834;2023-02-28T00:09:50;5.42;;;4.83;;
50591;SDS011;36548;50.506;30.834;2023-02-28T00:11:03;4.85;;;4.32;;
50591;SDS011;36548;50.506;30.834;2023-02-28T00:12:14;4.97;;;4.23;;
50591;SDS011;36548;50.506;30.834;2023-02-28T00:13:24;6.63;;;4.53;;
50591;SDS011;36548;50.506;30.834;2023-02-28T00:14:32;5.78;;;4.08;;
50591;SDS011;36548;50.506;30.834;2023-02-28T00:15:41;5.38;;;3.78;;
50591;SDS011;36548;50.506;30.834;2023-02-28T00:16:49;4.75;;;3.85;;
50591;SDS011;36548;50.506;30.834;2023-02-28T00:17:58;5.15;;;3.75;;
50591;SDS011;36548;50.506;30.834;2023-02-28T00:19:07;4.97;;;4.47;;
50591;SDS011;36548;50.506;30.834;2023-02-28T00:20:17;4.63;;;3.80;;
50591;SDS011;36548;50.506;30.834;2023-02-28T00:21:26;5.78;;;4.60;;
50591;SDS011;36548;50.506;30.834;2023-02-28T00:22:36;6.33;;;4.22;;
50591;SDS011;36548;50.506;30.834;2023-02-28T00:23:48;8.90;;;4.73;;
50591;SDS011;36548;50.506;30.834;2023-02-28T00:24:57;5.04;;;4.22;;
50591;SDS011;36548;50.506;30.834;2023-02-28T00:26:06;5.63;;;4.42;;
50591;SDS011;36548;50.506;30.834;2023-02-28T00:27:18;4.77;;;3.67;;
50591;SDS011;36548;50.506;30.834;2023-02-28T00:28:27;6.05;;;4.35;;
50591;SDS011;36548;50.506;30.834;2023-02-28T00:29:37;6.55;;;4.60;;
50591;SDS011;36548;50.506;30.834;2023-02-28T00:30:46;5.05;;;4.15;;
50591;SDS011;36548;50.506;30.834;2023-02-28T00:31:55;4.30;;;3.95;;
50591;SDS011;36548;50.506;30.834;2023-02-28T00:33:04;4.15;;;3.55;;
50591;SDS011;36548;50.506;30.834;2023-02-28T00:34:14;4.73;;;4.28;;
50591;SDS011;36548;50.506;30.834;2023-02-28T00:35:24;4.02;;;3.62;;
50591;SDS011;36548;50.506;30.834;2023-02-28T00:36:33;4.85;;;3.77;;
50591;SDS011;36548;50.506;30.834;2023-02-28T00:37:43;3.80;;;3.50;;
50591;SDS011;36548;50.506;30.834;2023-02-28T00:38:52;4.82;;;3.80;;
50591;SDS011;36548;50.506;30.834;2023-02-28T00:40:01;5.10;;;3.48;;
50591;SDS011;36548;50.506;30.834;2023-02-28T00:41:13;4.10;;;3.55;;
50591;SDS011;36548;50.506;30.834;2023-02-28T00:42:23;4.60;;;3.57;;
50591;SDS011;36548;50.506;30.834;2023-02-28T00:43:34;4.30;;;3.90;;
50591;SDS011;36548;50.506;30.834;2023-02-28T00:44:50;3.92;;;3.60;;
50591;SDS011;36548;50.506;30.834;2023-02-28T00:46:00;3.56;;;3.22;;
50591;SDS011;36548;50.506;30.834;2023-02-28T00:47:12;5.10;;;3.52;;
50591;SDS011;36548;50.506;30.834;2023-02-28T00:48:21;4.12;;;3.63;;
50591;SDS011;36548;50.506;30.834;2023-02-28T00:49:31;4.85;;;4.12;;
50591;SDS011;36548;50.506;30.834;2023-02-28T00:50:40;4.33;;;3.83;;
50591;SDS011;36548;50.506;30.834;2023-02-28T00:51:49;4.18;;;3.20;;
50591;SDS011;36548;50.506;30.834;2023-02-28T00:53:00;4.17;;;3.73;;
50591;SDS011;36548;50.506;30.834;2023-02-28T00:54:09;4.28;;;3.88;;
50591;SDS011;36548;50.506;30.834;2023-02-28T00:55:18;4.15;;;3.75;;
50591;SDS011;36548;50.506;30.834;2023-02-28T00:56:27;4.23;;;3.47;;
50591;SDS011;36548;50.506;30.834;2023-02-28T00:57:37;4.50;;;3.57;;
50591;SDS011;36548;50.506;30.834;2023-02-28T00:58:47;3.72;;;3.36;;
50591;SDS011;36548;50.506;30.834;2023-02-28T00:59:57;3.72;;;3.42;;
50591;SDS011;36548;50.506;30.834;2023-02-28T01:01:06;5.02;;;4.13;;
50591;SDS011;36548;50.506;30.834;2023-02-28T01:02:16;4.35;;;3.90;;
50591;SDS011;36548;50.506;30.834;2023-02-28T01:03:32;4.40;;;4.00;;
50591;SDS011;36548;50.506;30.834;2023-02-28T01:04:41;5.30;;;4.80;;
50591;SDS011;36548;50.506;30.834;2023-02-28T01:05:51;5.15;;;3.87;;
50591;SDS011;36548;50.506;30.834;2023-02-28T01:07:02;4.84;;;3.88;;
50591;SDS011;36548;50.506;30.834;2023-02-28T01:08:11;5.58;;;4.13;;
50591;SDS011;36548;50.506;30.834;2023-02-28T01:09:21;4.75;;;3.92;;
50591;SDS011;36548;50.506;30.834;2023-02-28T01:10:31;4.25;;;3.63;;
50591;SDS011;36548;50.506;30.834;2023-02-28T01:11:41;3.85;;;3.53;;
50591;SDS011;36548;50.506;30.834;2023-02-28T01:14:01;3.75;;;3.42;;
50591;SDS011;36548;50.506;30.834;2023-02-28T01:15:12;3.82;;;3.52;;
50591;SDS011;36548;50.506;30.834;2023-02-28T01:16:21;4.30;;;3.68;;
50591;SDS011;36548;50.506;30.834;2023-02-28T01:17:30;4.13;;;3.43;;
50591;SDS011;36548;50.506;30.834;2023-02-28T01:18:41;4.83;;;4.08;;
50591;SDS011;36548;50.506;30.834;2023-02-28T01:20:17;4.45;;;4.05;;
50591;SDS011;36548;50.506;30.834;2023-02-28T01:21:26;5.07;;;4.40;;
50591;SDS011;36548;50.506;30.834;2023-02-28T01:22:36;3.98;;;3.63;;
50591;SDS011;36548;50.506;30.834;2023-02-28T01:23:44;5.03;;;4.27;;
50591;SDS011;36548;50.506;30.834;2023-02-28T01:24:55;6.07;;;4.07;;
50591;SDS011;36548;50.506;30.834;2023-02-28T01:27:23;4.35;;;3.95;;
50591;SDS011;36548;50.506;30.834;2023-02-28T01:28:33;4.18;;;3.82;;
50591;SDS011;36548;50.506;30.834;2023-02-28T01:29:44;4.87;;;3.80;;
50591;SDS011;36548;50.506;30.834;2023-02-28T01:30:52;4.94;;;4.08;;
50591;SDS011;36548;50.506;30.834;2023-02-28T01:32:02;4.72;;;3.55;;
50591;SDS011;36548;50.506;30.834;2023-02-28T01:33:11;4.67;;;4.20;;
50591;SDS011;36548;50.506;30.834;2023-02-28T01:34:20;4.60;;;4.04;;
50591;SDS011;36548;50.506;30.834;2023-02-28T01:35:31;4.47;;;3.98;;
50591;SDS011;36548;50.506;30.834;2023-02-28T01:36:43;4.90;;;4.16;;
50591;SDS011;36548;50.506;30.834;2023-02-28T01:37:52;4.93;;;3.72;;
50591;SDS011;36548;50.506;30.834;2023-02-28T01:39:01;4.42;;;4.00;;
50591;SDS011;36548;50.506;30.834;2023-02-28T01:40:12;5.10;;;4.25;;
50591;SDS011;36548;50.506;30.834;2023-02-28T01:41:28;4.80;;;4.28;;
50591;SDS011;36548;50.506;30.834;2023-02-28T01:42:49;4.56;;;4.08;;
50591;SDS011;36548;50.506;30.834;2023-02-28T01:44:02;5.30;;;4.70;;
50591;SDS011;36548;50.506;30.834;2023-02-28T01:46:34;5.32;;;4.82;;
50591;SDS011;36548;50.506;30.834;2023-02-28T01:47:44;4.95;;;4.27;;
50591;SDS011;36548;50.506;30.834;2023-02-28T01:50:14;6.48;;;4.65;;
50591;SDS011;36548;50.506;30.834;2023-02-28T01:51:26;5.15;;;4.30;;
50591;SDS011;36548;50.506;30.834;2023-02-28T01:52:45;4.77;;;4.28;;
50591;SDS011;36548;50.506;30.834;2023-02-28T01:54:02;5.15;;;4.53;;
50591;SDS011;36548;50.506;30.834;2023-02-28T01:55:18;6.10;;;5.25;;
50591;SDS011;36548;50.506;30.834;2023-02-28T01:56:32;5.77;;;5.23;;
50591;SDS011;36548;50.506;30.834;2023-02-28T01:57:46;5.08;;;4.58;;
50591;SDS011;36548;50.506;30.834;2023-02-28T01:58:58;5.63;;;5.00;;
50591;SDS011;36548;50.506;30.834;2023-02-28T02:01:30;6.15;;;4.45;;
50591;SDS011;36548;50.506;30.834;2023-02-28T02:02:43;5.83;;;4.90;;
50591;SDS011;36548;50.506;30.834;2023-02-28T02:03:56;6.07;;;4.98;;
50591;SDS011;36548;50.506;30.834;2023-02-28T02:05:09;5.48;;;4.82;;
50591;SDS011;36548;50.506;30.834;2023-02-28T02:06:38;5.83;;;4.55;;
50591;SDS011;36548;50.506;30.834;2023-02-28T02:07:52;6.48;;;5.07;;
50591;SDS011;36548;50.506;30.834;2023-02-28T02:09:14;5.12;;;4.37;;
50591;SDS011;36548;50.506;30.834;2023-02-28T02:10:31;5.65;;;4.62;;
50591;SDS011;36548;50.506;30.834;2023-02-28T02:11:42;6.27;;;4.67;;
50591;SDS011;36548;50.506;30.834;2023-02-28T02:14:51;5.35;;;4.60;;
50591;SDS011;36548;50.506;30.834;2023-02-28T02:17:28;5.82;;;5.08;;
50591;SDS011;36548;50.506;30.834;2023-02-28T02:23:45;5.43;;;4.90;;
50591;SDS011;36548;50.506;30.834;2023-02-28T02:27:57;6.90;;;5.75;;
50591;SDS011;36548;50.506;30.834;2023-02-28T02:35:31;5.93;;;4.08;;
50591;SDS011;36548;50.506;30.834;2023-02-28T02:38:26;4.88;;;4.40;;
50591;SDS011;36548;50.506;30.834;2023-02-28T02:41:09;4.53;;;3.83;;
50591;SDS011;36548;50.506;30.834;2023-02-28T02:42:39;6.17;;;5.57;;
50591;SDS011;36548;50.506;30.834;2023-02-28T02:45:31;5.13;;;4.45;;
50591;SDS011;36548;50.506;30.834;2023-02-28T02:46:45;4.72;;;4.10;;
50591;SDS011;36548;50.506;30.834;2023-02-28T02:47:58;4.68;;;4.20;;
50591;SDS011;36548;50.506;30.834;2023-02-28T02:50:38;6.68;;;5.10;;
50591;SDS011;36548;50.506;30.834;2023-02-28T02:51:49;5.02;;;4.50;;
50591;SDS011;36548;50.506;30.834;2023-02-28T02:53:02;4.82;;;4.42;;
50591;SDS011;36548;50.506;30.834;2023-02-28T02:54:15;5.43;;;4.32;;
50591;SDS011;36548;50.506;30.834;2023-02-28T02:55:26;5.40;;;4.88;;
50591;SDS011;36548;50.506;30.834;2023-02-28T02:56:37;4.05;;;3.75;;
50591;SDS011;36548;50.506;30.834;2023-02-28T02:57:52;4.13;;;3.75;;
50591;SDS011;36548;50.506;30.834;2023-02-28T02:59:04;4.45;;;4.05;;
50591;SDS011;36548;50.506;30.834;2023-02-28T03:00:18;5.02;;;4.35;;
50591;SDS011;36548;50.506;30.834;2023-02-28T03:01:31;4.77;;;4.12;;
50591;SDS011;36548;50.506;30.834;2023-02-28T03:02:43;4.88;;;4.05;;
50591;SDS011;36548;50.506;30.834;2023-02-28T03:03:55;4.50;;;4.10;;
50591;SDS011;36548;50.506;30.834;2023-02-28T03:05:14;4.47;;;4.03;;
50591;SDS011;36548;50.506;30.834;2023-02-28T03:06:36;5.77;;;4.87;;
50591;SDS011;36548;50.506;30.834;2023-02-28T03:07:45;5.07;;;4.58;;
50591;SDS011;36548;50.506;30.834;2023-02-28T03:08:55;6.22;;;5.62;;
50591;SDS011;36548;50.506;30.834;2023-02-28T03:10:25;6.88;;;6.23;;
50591;SDS011;36548;50.506;30.834;2023-02-28T03:11:34;6.18;;;5.58;;
50591;SDS011;36548;50.506;30.834;2023-02-28T03:12:48;5.97;;;5.32;;
50591;SDS011;36548;50.506;30.834;2023-02-28T03:14:13;5.72;;;5.05;;
50591;SDS011;36548;50.506;30.834;2023-02-28T03:15:32;5.43;;;4.93;;
50591;SDS011;36548;50.506;30.834;2023-02-28T03:18:11;6.10;;;5.45;;
50591;SDS011;36548;50.506;30.834;2023-02-28T03:23:37;6.08;;;5.08;;
50591;SDS011;36548;50.506;30.834;2023-02-28T03:24:57;6.25;;;5.65;;
50591;SDS011;36548;50.506;30.834;2023-02-28T03:26:23;5.58;;;4.98;;
50591;SDS011;36548;50.506;30.834;2023-02-28T03:27:40;6.00;;;5.40;;
50591;SDS011;36548;50.506;30.834;2023-02-28T03:28:54;6.28;;;5.73;;
50591;SDS011;36548;50.506;30.834;2023-02-28T03:30:09;6.42;;;5.82;;
50591;SDS011;36548;50.506;30.834;2023-02-28T03:31:21;7.60;;;6.42;;
50591;SDS011;36548;50.506;30.834;2023-02-28T03:32:40;7.12;;;6.32;;
50591;SDS011;36548;50.506;30.834;2023-02-28T03:34:04;7.75;;;6.40;;
50591;SDS011;36548;50.506;30.834;2023-02-28T03:35:28;7.25;;;6.45;;
50591;SDS011;36548;50.506;30.834;2023-02-28T03:36:44;7.23;;;6.60;;
50591;SDS011;36548;50.506;30.834;2023-02-28T03:38:00;7.55;;;6.58;;
50591;SDS011;36548;50.506;30.834;2023-02-28T03:39:27;6.70;;;6.10;;
50591;SDS011;36548;50.506;30.834;2023-02-28T03:40:43;6.87;;;6.27;;
50591;SDS011;36548;50.506;30.834;2023-02-28T03:41:57;7.33;;;6.45;;
50591;SDS011;36548;50.506;30.834;2023-02-28T03:43:23;6.88;;;6.28;;
50591;SDS011;36548;50.506;30.834;2023-02-28T03:44:40;6.53;;;5.42;;
50591;SDS011;36548;50.506;30.834;2023-02-28T03:45:52;6.72;;;6.03;;
50591;SDS011;36548;50.506;30.834;2023-02-28T03:47:06;6.80;;;6.15;;
50591;SDS011;36548;50.506;30.834;2023-02-28T03:48:24;6.72;;;6.05;;
50591;SDS011;36548;50.506;30.834;2023-02-28T03:49:45;7.10;;;5.87;;
50591;SDS011;36548;50.506;30.834;2023-02-28T03:51:06;7.52;;;6.44;;
50591;SDS011;36548;50.506;30.834;2023-02-28T03:52:19;6.75;;;6.05;;
50591;SDS011;36548;50.506;30.834;2023-02-28T03:53:37;7.50;;;6.60;;
50591;SDS011;36548;50.506;30.834;2023-02-28T03:54:50;6.30;;;5.70;;
50591;SDS011;36548;50.506;30.834;2023-02-28T03:56:16;6.12;;;5.57;;
50591;SDS011;36548;50.506;30.834;2023-02-28T03:59:17;9.68;;;8.23;;
50591;SDS011;36548;50.506;30.834;2023-02-28T04:00:35;9.33;;;7.90;;
50591;SDS011;36548;50.506;30.834;2023-02-28T04:01:56;10.85;;;8.48;;
50591;SDS011;36548;50.506;30.834;2023-02-28T04:03:06;11.00;;;8.95;;
50591;SDS011;36548;50.506;30.834;2023-02-28T04:04:16;8.73;;;7.85;;
50591;SDS011;36548;50.506;30.834;2023-02-28T04:05:25;9.07;;;8.10;;
50591;SDS011;36548;50.506;30.834;2023-02-28T04:06:36;8.00;;;7.15;;
50591;SDS011;36548;50.506;30.834;2023-02-28T04:07:46;11.43;;;9.23;;
50591;SDS011;36548;50.506;30.834;2023-02-28T04:08:54;7.90;;;7.12;;
50591;SDS011;36548;50.506;30.834;2023-02-28T04:10:04;7.95;;;7.03;;
50591;SDS011;36548;50.506;30.834;2023-02-28T04:11:30;9.90;;;7.75;;
50591;SDS011;36548;50.506;30.834;2023-02-28T04:12:45;8.64;;;7.70;;
50591;SDS011;36548;50.506;30.834;2023-02-28T04:13:54;8.40;;;7.40;;
50591;SDS011;36548;50.506;30.834;2023-02-28T04:15:04;8.45;;;7.55;;
50591;SDS011;36548;50.506;30.834;2023-02-28T04:16:15;8.63;;;7.73;;
50591;SDS011;36548;50.506;30.834;2023-02-28T04:17:27;9.68;;;8.02;;
50591;SDS011;36548;50.506;30.834;2023-02-28T04:18:42;9.88;;;8.45;;
50591;SDS011;36548;50.506;30.834;2023-02-28T04:19:54;7.64;;;6.94;;
50591;SDS011;36548;50.506;30.834;2023-02-28T04:21:06;7.45;;;6.75;;
50591;SDS011;36548;50.506;30.834;2023-02-28T04:22:16;7.28;;;6.58;;
50591;SDS011;36548;50.506;30.834;2023-02-28T04:23:26;7.30;;;6.60;;
50591;SDS011;36548;50.506;30.834;2023-02-28T04:24:35;6.80;;;6.15;;
50591;SDS011;36548;50.506;30.834;2023-02-28T04:25:44;7.00;;;6.35;;
50591;SDS011;36548;50.506;30.834;2023-02-28T04:27:00;7.30;;;6.65;;
50591;SDS011;36548;50.506;30.834;2023-02-28T04:28:09;6.88;;;6.27;;
50591;SDS011;36548;50.506;30.834;2023-02-28T04:29:22;6.37;;;5.78;;
50591;SDS011;36548;50.506;30.834;2023-02-28T04:30:37;6.72;;;5.97;;
50591;SDS011;36548;50.506;30.834;2023-02-28T04:31:46;6.87;;;6.03;;
50591;SDS011;36548;50.506;30.834;2023-02-28T04:32:56;6.83;;;6.18;;
50591;SDS011;36548;50.506;30.834;2023-02-28T04:34:05;7.38;;;6.58;;
50591;SDS011;36548;50.506;30.834;2023-02-28T04:35:16;7.95;;;7.15;;
50591;SDS011;36548;50.506;30.834;2023-02-28T04:36:25;8.72;;;7.23;;
50591;SDS011;36548;50.506;30.834;2023-02-28T04:38:46;8.78;;;6.80;;
50591;SDS011;36548;50.506;30.834;2023-02-28T04:39:54;8.42;;;7.22;;
50591;SDS011;36548;50.506;30.834;2023-02-28T04:41:11;10.57;;;7.75;;
50591;SDS011;36548;50.506;30.834;2023-02-28T04:42:24;11.95;;;8.35;;
50591;SDS011;36548;50.506;30.834;2023-02-28T04:43:33;12.45;;;8.35;;
50591;SDS011;36548;50.506;30.834;2023-02-28T04:44:43;11.88;;;9.03;;
50591;SDS011;36548;50.506;30.834;2023-02-28T04:45:52;11.38;;;9.10;;
50591;SDS011;36548;50.506;30.834;2023-02-28T04:47:06;11.64;;;8.60;;
50591;SDS011;36548;50.506;30.834;2023-02-28T04:48:15;9.85;;;8.37;;
50591;SDS011;36548;50.506;30.834;2023-02-28T04:49:25;10.80;;;8.48;;
50591;SDS011;36548;50.506;30.834;2023-02-28T04:50:35;12.10;;;9.53;;
50591;SDS011;36548;50.506;30.834;2023-02-28T04:51:51;13.38;;;10.28;;
50591;SDS011;36548;50.506;30.834;2023-02-28T04:53:02;13.18;;;9.54;;
50591;SDS011;36548;50.506;30.834;2023-02-28T04:54:14;15.95;;;11.00;;
50591;SDS011;36548;50.506;30.834;2023-02-28T04:55:24;13.70;;;10.83;;
50591;SDS011;36548;50.506;30.834;2023-02-28T04:56:33;15.17;;;10.48;;
50591;SDS011;36548;50.506;30.834;2023-02-28T04:57:43;14.20;;;11.50;;
50591;SDS011;36548;50.506;30.834;2023-02-28T04:58:52;16.90;;;11.18;;
50591;SDS011;36548;50.506;30.834;2023-02-28T05:00:01;18.35;;;11.48;;
50591;SDS011;36548;50.506;30.834;2023-02-28T05:02:34;15.90;;;12.00;;
50591;SDS011;36548;50.506;30.834;2023-02-28T05:03:44;9.90;;;8.02;;
50591;SDS011;36548;50.506;30.834;2023-02-28T05:04:53;7.70;;;6.60;;
50591;SDS011;36548;50.506;30.834;2023-02-28T05:06:02;7.53;;;6.83;;
50591;SDS011;36548;50.506;30.834;2023-02-28T05:07:13;6.92;;;6.23;;
50591;SDS011;36548;50.506;30.834;2023-02-28T05:08:23;6.92;;;6.07;;
50591;SDS011;36548;50.506;30.834;2023-02-28T05:09:35;6.58;;;5.90;;
50591;SDS011;36548;50.506;30.834;2023-02-28T05:10:44;6.45;;;5.85;;
50591;SDS011;36548;50.506;30.834;2023-02-28T05:11:59;6.62;;;5.63;;
50591;SDS011;36548;50.506;30.834;2023-02-28T05:13:09;7.58;;;6.35;;
50591;SDS011;36548;50.506;30.834;2023-02-28T05:14:19;7.97;;;7.18;;
50591;SDS011;36548;50.506;30.834;2023-02-28T05:15:29;8.10;;;6.00;;
50591;SDS011;36548;50.506;30.834;2023-02-28T05:16:38;9.47;;;6.82;;
50591;SDS011;36548;50.506;30.834;2023-02-28T05:17:48;8.13;;;6.93;;
50591;SDS011;36548;50.506;30.834;2023-02-28T05:18:57;7.25;;;6.38;;
50591;SDS011;36548;50.506;30.834;2023-02-28T05:20:08;6.13;;;5.60;;
50591;SDS011;36548;50.506;30.834;2023-02-28T05:21:31;7.23;;;6.35;;
50591;SDS011;36548;50.506;30.834;2023-02-28T05:22:43;6.38;;;5.50;;
50591;SDS011;36548;50.506;30.834;2023-02-28T05:23:53;7.35;;;6.10;;
50591;SDS011;36548;50.506;30.834;2023-02-28T05:25:04;7.98;;;6.58;;
50591;SDS011;36548;50.506;30.834;2023-02-28T05:26:13;6.20;;;5.60;;
50591;SDS011;36548;50.506;30.834;2023-02-28T05:27:24;9.00;;;7.03;;
50591;SDS011;36548;50.506;30.834;2023-02-28T05:28:33;7.37;;;6.62;;
50591;SDS011;36548;50.506;30.834;2023-02-28T05:29:42;6.58;;;5.48;;
50591;SDS011;36548;50.506;30.834;2023-02-28T05:30:52;6.27;;;5.63;;
50591;SDS011;36548;50.506;30.834;2023-02-28T05:32:01;8.53;;;5.58;;
50591;SDS011;36548;50.506;30.834;2023-02-28T05:33:10;9.95;;;6.93;;
50591;SDS011;36548;50.506;30.834;2023-02-28T05:34:21;7.28;;;5.92;;
50591;SDS011;36548;50.506;30.834;2023-02-28T05:35:30;7.32;;;6.37;;
50591;SDS011;36548;50.506;30.834;2023-02-28T05:36:42;7.12;;;6.08;;
50591;SDS011;36548;50.506;30.834;2023-02-28T05:37:51;8.12;;;6.78;;
50591;SDS011;36548;50.506;30.834;2023-02-28T05:39:06;7.13;;;6.18;;
50591;SDS011;36548;50.506;30.834;2023-02-28T05:40:18;7.82;;;6.02;;
50591;SDS011;36548;50.506;30.834;2023-02-28T05:41:56;6.87;;;5.67;;
50591;SDS011;36548;50.506;30.834;2023-02-28T05:43:07;7.00;;;5.75;;
50591;SDS011;36548;50.506;30.834;2023-02-28T05:44:18;8.95;;;6.40;;
50591;SDS011;36548;50.506;30.834;2023-02-28T05:45:28;10.15;;;5.68;;
50591;SDS011;36548;50.506;30.834;2023-02-28T05:46:37;6.93;;;5.87;;
50591;SDS011;36548;50.506;30.834;2023-02-28T05:47:47;7.53;;;5.98;;
50591;SDS011;36548;50.506;30.834;2023-02-28T05:48:56;7.37;;;6.58;;
50591;SDS011;36548;50.506;30.834;2023-02-28T05:50:13;11.20;;;6.55;;
50591;SDS011;36548;50.506;30.834;2023-02-28T05:51:23;7.80;;;6.45;;
50591;SDS011;36548;50.506;30.834;2023-02-28T05:52:38;7.50;;;6.37;;
50591;SDS011;36548;50.506;30.834;2023-02-28T05:53:49;9.62;;;6.57;;
50591;SDS011;36548;50.506;30.834;2023-02-28T05:55:04;8.17;;;6.20;;
50591;SDS011;36548;50.506;30.834;2023-02-28T05:56:14;8.35;;;6.52;;
50591;SDS011;36548;50.506;30.834;2023-02-28T05:57:23;8.08;;;6.32;;
50591;SDS011;36548;50.506;30.834;2023-02-28T05:58:33;7.80;;;6.72;;
50591;SDS011;36548;50.506;30.834;2023-02-28T05:59:50;8.18;;;6.02;;
50591;SDS011;36548;50.506;30.834;2023-02-28T06:01:00;9.45;;;6.55;;
50591;SDS011;36548;50.506;30.834;2023-02-28T06:02:13;7.85;;;7.00;;
50591;SDS011;36548;50.506;30.834;2023-02-28T06:03:31;9.13;;;5.90;;
50591;SDS011;36548;50.506;30.834;2023-02-28T06:04:40;8.64;;;6.54;;
50591;SDS011;36548;50.506;30.834;2023-02-28T06:05:56;8.60;;;6.03;;
50591;SDS011;36548;50.506;30.834;2023-02-28T06:07:06;21.20;;;7.00;;
50591;SDS011;36548;50.506;30.834;2023-02-28T06:08:15;6.55;;;5.82;;
50591;SDS011;36548;50.506;30.834;2023-02-28T06:09:26;8.92;;;7.27;;
50591;SDS011;36548;50.506;30.834;2023-02-28T06:10:35;7.42;;;5.70;;
50591;SDS011;36548;50.506;30.834;2023-02-28T06:11:45;7.60;;;6.15;;
50591;SDS011;36548;50.506;30.834;2023-02-28T06:12:56;7.42;;;5.88;;
50591;SDS011;36548;50.506;30.834;2023-02-28T06:14:14;8.37;;;6.67;;
50591;SDS011;36548;50.506;30.834;2023-02-28T06:15:25;7.40;;;6.70;;
50591;SDS011;36548;50.506;30.834;2023-02-28T06:16:35;7.22;;;6.15;;
50591;SDS011;36548;50.506;30.834;2023-02-28T06:17:44;8.62;;;6.48;;
50591;SDS011;36548;50.506;30.834;2023-02-28T06:18:53;9.18;;;7.43;;
50591;SDS011;36548;50.506;30.834;2023-02-28T06:20:11;9.95;;;7.55;;
50591;SDS011;36548;50.506;30.834;2023-02-28T06:21:23;12.45;;;7.80;;
50591;SDS011;36548;50.506;30.834;2023-02-28T06:22:32;13.42;;;9.07;;
50591;SDS011;36548;50.506;30.834;2023-02-28T06:23:48;12.75;;;8.95;;
50591;SDS011;36548;50.506;30.834;2023-02-28T06:24:57;12.70;;;9.00;;
50591;SDS011;36548;50.506;30.834;2023-02-28T06:26:06;12.15;;;9.18;;
50591;SDS011;36548;50.506;30.834;2023-02-28T06:27:16;11.82;;;9.10;;
50591;SDS011;36548;50.506;30.834;2023-02-28T06:28:25;12.62;;;9.62;;
50591;SDS011;36548;50.506;30.834;2023-02-28T06:29:34;13.47;;;9.03;;
50591;SDS011;36548;50.506;30.834;2023-02-28T06:30:48;10.90;;;9.20;;
50591;SDS011;36548;50.506;30.834;2023-02-28T06:32:03;9.75;;;8.58;;
50591;SDS011;36548;50.506;30.834;2023-02-28T06:33:12;12.93;;;8.40;;
50591;SDS011;36548;50.506;30.834;2023-02-28T06:34:28;10.58;;;8.85;;
50591;SDS011;36548;50.506;30.834;2023-02-28T06:35:37;8.30;;;7.30;;
50591;SDS011;36548;50.506;30.834;2023-02-28T06:36:52;8.30;;;6.60;;
50591;SDS011;36548;50.506;30.834;2023-02-28T06:38:03;11.35;;;7.75;;
50591;SDS011;36548;50.506;30.834;2023-02-28T06:39:19;11.16;;;8.00;;
50591;SDS011;36548;50.506;30.834;2023-02-28T06:40:28;9.30;;;7.45;;
50591;SDS011;36548;50.506;30.834;2023-02-28T06:41:47;7.12;;;6.13;;
50591;SDS011;36548;50.506;30.834;2023-02-28T06:42:58;7.55;;;5.63;;
50591;SDS011;36548;50.506;30.834;2023-02-28T06:44:13;6.97;;;6.27;;
50591;SDS011;36548;50.506;30.834;2023-02-28T06:45:24;8.92;;;6.82;;
50591;SDS011;36548;50.506;30.834;2023-02-28T06:46:34;10.20;;;6.70;;
50591;SDS011;36548;50.506;30.834;2023-02-28T06:47:49;11.47;;;6.68;;
50591;SDS011;36548;50.506;30.834;2023-02-28T06:50:10;8.80;;;6.15;;
50591;SDS011;36548;50.506;30.834;2023-02-28T06:51:20;14.35;;;5.78;;
50591;SDS011;36548;50.506;30.834;2023-02-28T06:52:30;6.23;;;5.17;;
50591;SDS011;36548;50.506;30.834;2023-02-28T06:53:39;6.47;;;5.82;;
50591;SDS011;36548;50.506;30.834;2023-02-28T06:54:49;6.82;;;5.35;;
50591;SDS011;36548;50.506;30.834;2023-02-28T06:55:59;7.70;;;5.38;;
50591;SDS011;36548;50.506;30.834;2023-02-28T06:57:16;8.43;;;5.92;;
50591;SDS011;36548;50.506;30.834;2023-02-28T06:58:24;5.92;;;5.32;;
50591;SDS011;36548;50.506;30.834;2023-02-28T06:59:33;5.42;;;4.82;;
50591;SDS011;36548;50.506;30.834;2023-02-28T07:00:43;7.67;;;5.72;;
50591;SDS011;36548;50.506;30.834;2023-02-28T07:01:56;6.52;;;5.47;;
50591;SDS011;36548;50.506;30.834;2023-02-28T07:03:05;6.57;;;5.72;;
50591;SDS011;36548;50.506;30.834;2023-02-28T07:04:14;11.12;;;8.07;;
50591;SDS011;36548;50.506;30.834;2023-02-28T07:05:22;10.80;;;8.62;;
50591;SDS011;36548;50.506;30.834;2023-02-28T07:06:31;10.78;;;8.58;;
50591;SDS011;36548;50.506;30.834;2023-02-28T07:07:40;9.28;;;7.92;;
50591;SDS011;36548;50.506;30.834;2023-02-28T07:08:52;7.50;;;6.04;;
50591;SDS011;36548;50.506;30.834;2023-02-28T07:10:01;6.95;;;6.20;;
50591;SDS011;36548;50.506;30.834;2023-02-28T07:11:13;7.30;;;5.90;;
50591;SDS011;36548;50.506;30.834;2023-02-28T07:12:33;8.60;;;7.55;;
50591;SDS011;36548;50.506;30.834;2023-02-28T07:15:07;11.35;;;8.70;;
50591;SDS011;36548;50.506;30.834;2023-02-28T07:16:20;13.70;;;9.70;;
50591;SDS011;36548;50.506;30.834;2023-02-28T07:17:29;13.97;;;10.72;;
50591;SDS011;36548;50.506;30.834;2023-02-28T07:18:39;10.27;;;8.47;;
50591;SDS011;36548;50.506;30.834;2023-02-28T07:19:47;7.90;;;6.87;;
50591;SDS011;36548;50.506;30.834;2023-02-28T07:20:57;8.65;;;6.18;;
50591;SDS011;36548;50.506;30.834;2023-02-28T07:22:07;5.42;;;4.65;;
50591;SDS011;36548;50.506;30.834;2023-02-28T07:23:16;5.98;;;5.37;;
50591;SDS011;36548;50.506;30.834;2023-02-28T07:24:25;6.12;;;5.33;;
50591;SDS011;36548;50.506;30.834;2023-02-28T07:25:37;6.50;;;5.30;;
50591;SDS011;36548;50.506;30.834;2023-02-28T07:26:47;5.95;;;5.28;;
50591;SDS011;36548;50.506;30.834;2023-02-28T07:27:55;5.73;;;5.02;;
50591;SDS011;36548;50.506;30.834;2023-02-28T07:29:08;7.15;;;5.40;;
50591;SDS011;36548;50.506;30.834;2023-02-28T07:30:18;6.12;;;5.52;;
50591;SDS011;36548;50.506;30.834;2023-02-28T07:31:27;34.80;;;30.22;;
50591;SDS011;36548;50.506;30.834;2023-02-28T07:32:37;9.65;;;8.70;;
50591;SDS011;36548;50.506;30.834;2023-02-28T07:33:46;6.18;;;5.47;;
50591;SDS011;36548;50.506;30.834;2023-02-28T07:34:56;6.02;;;5.42;;
50591;SDS011;36548;50.506;30.834;2023-02-28T07:36:09;5.78;;;5.17;;
50591;SDS011;36548;50.506;30.834;2023-02-28T07:37:24;6.08;;;5.10;;
50591;SDS011;36548;50.506;30.834;2023-02-28T07:38:36;4.93;;;4.45;;
50591;SDS011;36548;50.506;30.834;2023-02-28T07:39:46;5.47;;;4.97;;
50591;SDS011;36548;50.506;30.834;2023-02-28T07:41:01;5.77;;;4.92;;
50591;SDS011;36548;50.506;30.834;2023-02-28T07:42:14;6.52;;;5.87;;
50591;SDS011;36548;50.506;30.834;2023-02-28T07:43:23;7.05;;;6.28;;
50591;SDS011;36548;50.506;30.834;2023-02-28T07:44:33;6.68;;;5.02;;
50591;SDS011;36548;50.506;30.834;2023-02-28T07:45:48;8.00;;;6.17;;
50591;SDS011;36548;50.506;30.834;2023-02-28T07:46:57;8.05;;;6.30;;
50591;SDS011;36548;50.506;30.834;2023-02-28T07:48:06;8.70;;;7.33;;
50591;SDS011;36548;50.506;30.834;2023-02-28T07:50:25;6.88;;;5.58;;
50591;SDS011;36548;50.506;30.834;2023-02-28T07:51:43;7.05;;;6.05;;